sensor_id;sensor_type;location;lat;lon;timestamp;P1;durP1;ratioP1;P2;durP2;ratioP2
14748;SDS011;7466;53.574;9.976;2023-03-15T00:02:12;2.47;;;1.70;;
14748;SDS011;7466;53.574;9.976;2023-03-15T00:04:40;4.33;;;1.90;;
14748;SDS011;7466;53.574;9.976;2023-03-15T00:07:07;6.17;;;1.70;;
14748;SDS011;7466;53.574;9.976;2023-03-15T00:09:34;5.93;;;1.80;;
14748;SDS011;7466;53.574;9.976;2023-03-15T00:12:01;8.33;;;1.83;;
14748;SDS011;7466;53.574;9.976;2023-03-15T00:14:28;2.73;;;1.80;;
14748;SDS011;7466;53.574;9.976;2023-03-15T00:16:57;5.97;;;1.60;;
14748;SDS011;7466;53.574;9.976;2023-03-15T00:19:24;3.27;;;1.23;;
14748;SDS011;7466;53.574;9.976;2023-03-15T00:21:53;4.83;;;1.87;;
14748;SDS011;7466;53.574;9.976;2023-03-15T00:24:19;5.40;;;1.80;;
14748;SDS011;7466;53.574;9.976;2023-03-15T00:26:46;4.03;;;1.87;;
14748;SDS011;7466;53.574;9.976;2023-03-15T00:29:13;5.10;;;1.63;;
14748;SDS011;7466;53.574;9.976;2023-03-15T00:31:40;3.83;;;2.07;;
14748;SDS011;7466;53.574;9.976;2023-03-15T00:34:07;5.50;;;1.80;;
14748;SDS011;7466;53.574;9.976;2023-03-15T00:36:37;6.23;;;2.03;;
14748;SDS011;7466;53.574;9.976;2023-03-15T00:39:09;7.37;;;1.87;;
14748;SDS011;7466;53.574;9.976;2023-03-15T00:41:36;6.13;;;2.17;;
14748;SDS011;7466;53.574;9.976;2023-03-15T00:44:03;4.63;;;2.20;;
14748;SDS011;7466;53.574;9.976;2023-03-15T00:46:30;5.63;;;1.73;;
14748;SDS011;7466;53.574;9.976;2023-03-15T00:49:09;5.67;;;1.90;;
14748;SDS011;7466;53.574;9.976;2023-03-15T00:51:36;4.93;;;2.07;;
14748;SDS011;7466;53.574;9.976;2023-03-15T00:54:02;5.30;;;1.90;;
14748;SDS011;7466;53.574;9.976;2023-03-15T00:56:31;7.07;;;2.10;;
14748;SDS011;7466;53.574;9.976;2023-03-15T00:58:58;4.47;;;2.73;;
14748;SDS011;7466;53.574;9.976;2023-03-15T01:01:26;6.30;;;2.07;;
14748;SDS011;7466;53.574;9.976;2023-03-15T01:03:55;6.53;;;2.17;;
14748;SDS011;7466;53.574;9.976;2023-03-15T01:06:22;6.57;;;2.10;;
14748;SDS011;7466;53.574;9.976;2023-03-15T01:08:50;8.53;;;2.30;;
14748;SDS011;7466;53.574;9.976;2023-03-15T01:11:22;6.33;;;2.50;;
14748;SDS011;7466;53.574;9.976;2023-03-15T01:13:51;4.97;;;2.33;;
14748;SDS011;7466;53.574;9.976;2023-03-15T01:16:19;7.27;;;2.87;;
14748;SDS011;7466;53.574;9.976;2023-03-15T01:18:47;6.47;;;2.53;;
14748;SDS011;7466;53.574;9.976;2023-03-15T01:21:15;5.90;;;2.70;;
14748;SDS011;7466;53.574;9.976;2023-03-15T01:23:43;3.50;;;3.30;;
14748;SDS011;7466;53.574;9.976;2023-03-15T01:26:11;6.77;;;2.87;;
14748;SDS011;7466;53.574;9.976;2023-03-15T01:28:38;6.07;;;2.53;;
14748;SDS011;7466;53.574;9.976;2023-03-15T01:31:08;6.30;;;2.70;;
14748;SDS011;7466;53.574;9.976;2023-03-15T01:33:40;6.27;;;2.57;;
14748;SDS011;7466;53.574;9.976;2023-03-15T01:36:08;3.73;;;2.60;;
14748;SDS011;7466;53.574;9.976;2023-03-15T01:38:36;7.83;;;3.50;;
14748;SDS011;7466;53.574;9.976;2023-03-15T01:41:03;4.23;;;2.50;;
14748;SDS011;7466;53.574;9.976;2023-03-15T01:43:31;6.40;;;2.93;;
14748;SDS011;7466;53.574;9.976;2023-03-15T01:46:11;4.23;;;2.80;;
14748;SDS011;7466;53.574;9.976;2023-03-15T01:48:43;3.43;;;2.70;;
14748;SDS011;7466;53.574;9.976;2023-03-15T01:51:15;8.53;;;3.13;;
14748;SDS011;7466;53.574;9.976;2023-03-15T01:53:49;7.43;;;3.50;;
14748;SDS011;7466;53.574;9.976;2023-03-15T01:56:18;3.50;;;3.20;;
14748;SDS011;7466;53.574;9.976;2023-03-15T01:58:46;5.10;;;3.63;;
14748;SDS011;7466;53.574;9.976;2023-03-15T02:01:16;4.67;;;3.70;;
14748;SDS011;7466;53.574;9.976;2023-03-15T02:03:45;4.80;;;3.77;;
14748;SDS011;7466;53.574;9.976;2023-03-15T02:06:16;6.23;;;3.93;;
14748;SDS011;7466;53.574;9.976;2023-03-15T02:08:45;4.83;;;4.13;;
14748;SDS011;7466;53.574;9.976;2023-03-15T02:11:16;4.90;;;3.70;;
14748;SDS011;7466;53.574;9.976;2023-03-15T02:13:45;5.63;;;3.80;;
14748;SDS011;7466;53.574;9.976;2023-03-15T02:16:14;4.87;;;3.43;;
14748;SDS011;7466;53.574;9.976;2023-03-15T02:18:43;4.10;;;3.70;;
14748;SDS011;7466;53.574;9.976;2023-03-15T02:21:13;5.37;;;4.20;;
14748;SDS011;7466;53.574;9.976;2023-03-15T02:23:52;9.23;;;4.40;;
14748;SDS011;7466;53.574;9.976;2023-03-15T02:26:27;5.83;;;4.20;;
14748;SDS011;7466;53.574;9.976;2023-03-15T02:29:01;7.60;;;4.17;;
14748;SDS011;7466;53.574;9.976;2023-03-15T02:31:28;4.97;;;4.30;;
14748;SDS011;7466;53.574;9.976;2023-03-15T02:34:02;4.33;;;3.77;;
14748;SDS011;7466;53.574;9.976;2023-03-15T02:36:31;4.73;;;3.83;;
14748;SDS011;7466;53.574;9.976;2023-03-15T02:38:59;6.33;;;4.27;;
14748;SDS011;7466;53.574;9.976;2023-03-15T02:41:27;5.13;;;3.47;;
14748;SDS011;7466;53.574;9.976;2023-03-15T02:44:00;6.37;;;3.67;;
14748;SDS011;7466;53.574;9.976;2023-03-15T02:46:30;5.57;;;3.67;;
14748;SDS011;7466;53.574;9.976;2023-03-15T02:48:57;5.00;;;4.07;;
14748;SDS011;7466;53.574;9.976;2023-03-15T02:51:26;4.00;;;3.60;;
14748;SDS011;7466;53.574;9.976;2023-03-15T02:53:57;5.07;;;4.07;;
14748;SDS011;7466;53.574;9.976;2023-03-15T02:56:24;4.37;;;3.90;;
14748;SDS011;7466;53.574;9.976;2023-03-15T02:58:50;4.77;;;4.37;;
14748;SDS011;7466;53.574;9.976;2023-03-15T03:01:19;4.27;;;3.87;;
14748;SDS011;7466;53.574;9.976;2023-03-15T03:03:46;5.33;;;4.17;;
14748;SDS011;7466;53.574;9.976;2023-03-15T03:06:13;6.00;;;4.10;;
14748;SDS011;7466;53.574;9.976;2023-03-15T03:08:41;5.80;;;3.63;;
14748;SDS011;7466;53.574;9.976;2023-03-15T03:11:11;4.93;;;3.60;;
14748;SDS011;7466;53.574;9.976;2023-03-15T03:13:38;8.13;;;3.53;;
14748;SDS011;7466;53.574;9.976;2023-03-15T03:16:05;4.07;;;3.60;;
14748;SDS011;7466;53.574;9.976;2023-03-15T03:18:34;7.50;;;4.33;;
14748;SDS011;7466;53.574;9.976;2023-03-15T03:21:01;4.43;;;3.70;;
14748;SDS011;7466;53.574;9.976;2023-03-15T03:23:29;6.30;;;3.73;;
14748;SDS011;7466;53.574;9.976;2023-03-15T03:25:58;6.37;;;4.03;;
14748;SDS011;7466;53.574;9.976;2023-03-15T03:28:27;5.07;;;3.63;;
14748;SDS011;7466;53.574;9.976;2023-03-15T03:30:55;6.73;;;3.60;;
14748;SDS011;7466;53.574;9.976;2023-03-15T03:33:22;4.53;;;4.10;;
14748;SDS011;7466;53.574;9.976;2023-03-15T03:35:51;8.07;;;3.57;;
14748;SDS011;7466;53.574;9.976;2023-03-15T03:38:19;5.87;;;3.43;;
14748;SDS011;7466;53.574;9.976;2023-03-15T03:40:46;5.60;;;3.97;;
14748;SDS011;7466;53.574;9.976;2023-03-15T03:43:13;4.10;;;3.67;;
14748;SDS011;7466;53.574;9.976;2023-03-15T03:45:40;3.77;;;3.47;;
14748;SDS011;7466;53.574;9.976;2023-03-15T03:48:13;4.10;;;3.50;;
14748;SDS011;7466;53.574;9.976;2023-03-15T03:50:40;3.70;;;3.40;;
14748;SDS011;7466;53.574;9.976;2023-03-15T03:53:08;4.83;;;3.97;;
14748;SDS011;7466;53.574;9.976;2023-03-15T03:55:36;5.67;;;4.63;;
14748;SDS011;7466;53.574;9.976;2023-03-15T03:58:03;3.63;;;3.33;;
14748;SDS011;7466;53.574;9.976;2023-03-15T04:00:30;3.87;;;3.57;;
14748;SDS011;7466;53.574;9.976;2023-03-15T04:02:57;3.40;;;3.00;;
14748;SDS011;7466;53.574;9.976;2023-03-15T04:05:23;2.67;;;2.53;;
14748;SDS011;7466;53.574;9.976;2023-03-15T04:07:50;2.80;;;2.60;;
14748;SDS011;7466;53.574;9.976;2023-03-15T04:10:18;3.97;;;2.23;;
14748;SDS011;7466;53.574;9.976;2023-03-15T04:12:51;3.30;;;2.40;;
14748;SDS011;7466;53.574;9.976;2023-03-15T04:15:22;3.03;;;2.50;;
14748;SDS011;7466;53.574;9.976;2023-03-15T04:17:50;2.27;;;2.17;;
14748;SDS011;7466;53.574;9.976;2023-03-15T04:20:19;3.03;;;2.60;;
14748;SDS011;7466;53.574;9.976;2023-03-15T04:22:46;3.00;;;2.30;;
14748;SDS011;7466;53.574;9.976;2023-03-15T04:25:14;3.00;;;2.70;;
14748;SDS011;7466;53.574;9.976;2023-03-15T04:27:42;3.53;;;3.27;;
14748;SDS011;7466;53.574;9.976;2023-03-15T04:30:10;3.70;;;3.40;;
14748;SDS011;7466;53.574;9.976;2023-03-15T04:32:37;4.40;;;3.57;;
14748;SDS011;7466;53.574;9.976;2023-03-15T04:35:06;3.63;;;3.43;;
14748;SDS011;7466;53.574;9.976;2023-03-15T04:37:33;4.00;;;3.60;;
14748;SDS011;7466;53.574;9.976;2023-03-15T04:40:00;4.37;;;3.60;;
14748;SDS011;7466;53.574;9.976;2023-03-15T04:42:29;4.33;;;3.90;;
14748;SDS011;7466;53.574;9.976;2023-03-15T04:44:57;4.47;;;3.90;;
14748;SDS011;7466;53.574;9.976;2023-03-15T04:47:25;4.50;;;4.10;;
14748;SDS011;7466;53.574;9.976;2023-03-15T04:49:51;4.17;;;3.77;;
14748;SDS011;7466;53.574;9.976;2023-03-15T04:52:19;4.87;;;4.33;;
14748;SDS011;7466;53.574;9.976;2023-03-15T04:54:45;6.57;;;5.20;;
14748;SDS011;7466;53.574;9.976;2023-03-15T04:59:51;7.00;;;6.27;;
14748;SDS011;7466;53.574;9.976;2023-03-15T05:02:20;10.53;;;7.33;;
14748;SDS011;7466;53.574;9.976;2023-03-15T05:04:46;11.77;;;8.23;;
14748;SDS011;7466;53.574;9.976;2023-03-15T05:07:13;12.97;;;9.40;;
14748;SDS011;7466;53.574;9.976;2023-03-15T05:09:40;14.07;;;9.40;;
14748;SDS011;7466;53.574;9.976;2023-03-15T05:12:10;16.97;;;10.37;;
14748;SDS011;7466;53.574;9.976;2023-03-15T05:14:37;12.80;;;10.00;;
14748;SDS011;7466;53.574;9.976;2023-03-15T05:17:04;14.73;;;10.37;;
14748;SDS011;7466;53.574;9.976;2023-03-15T05:19:32;18.73;;;11.67;;
14748;SDS011;7466;53.574;9.976;2023-03-15T05:21:59;18.43;;;11.50;;
14748;SDS011;7466;53.574;9.976;2023-03-15T05:24:26;14.07;;;10.40;;
14748;SDS011;7466;53.574;9.976;2023-03-15T05:26:53;14.77;;;11.00;;
14748;SDS011;7466;53.574;9.976;2023-03-15T05:29:20;14.53;;;10.30;;
14748;SDS011;7466;53.574;9.976;2023-03-15T05:31:47;15.80;;;9.83;;
14748;SDS011;7466;53.574;9.976;2023-03-15T05:34:16;13.03;;;9.67;;
14748;SDS011;7466;53.574;9.976;2023-03-15T05:36:44;11.20;;;9.90;;
14748;SDS011;7466;53.574;9.976;2023-03-15T05:39:11;18.33;;;10.40;;
14748;SDS011;7466;53.574;9.976;2023-03-15T05:41:40;13.27;;;9.03;;
14748;SDS011;7466;53.574;9.976;2023-03-15T05:44:07;13.93;;;9.73;;
14748;SDS011;7466;53.574;9.976;2023-03-15T05:46:35;16.87;;;9.17;;
14748;SDS011;7466;53.574;9.976;2023-03-15T05:49:01;15.87;;;9.20;;
14748;SDS011;7466;53.574;9.976;2023-03-15T05:51:28;11.60;;;8.67;;
14748;SDS011;7466;53.574;9.976;2023-03-15T05:53:56;10.40;;;8.63;;
14748;SDS011;7466;53.574;9.976;2023-03-15T05:56:23;11.17;;;8.37;;
14748;SDS011;7466;53.574;9.976;2023-03-15T05:58:50;13.47;;;8.60;;
14748;SDS011;7466;53.574;9.976;2023-03-15T06:01:17;9.33;;;7.73;;
14748;SDS011;7466;53.574;9.976;2023-03-15T06:03:44;13.20;;;7.93;;
14748;SDS011;7466;53.574;9.976;2023-03-15T06:06:11;12.03;;;8.40;;
14748;SDS011;7466;53.574;9.976;2023-03-15T06:08:38;9.83;;;8.23;;
14748;SDS011;7466;53.574;9.976;2023-03-15T06:11:07;13.33;;;8.77;;
14748;SDS011;7466;53.574;9.976;2023-03-15T06:13:33;15.20;;;8.60;;
14748;SDS011;7466;53.574;9.976;2023-03-15T06:16:00;12.23;;;8.20;;
14748;SDS011;7466;53.574;9.976;2023-03-15T06:18:28;15.07;;;9.27;;
14748;SDS011;7466;53.574;9.976;2023-03-15T06:20:55;15.37;;;8.97;;
14748;SDS011;7466;53.574;9.976;2023-03-15T06:23:22;15.13;;;9.80;;
14748;SDS011;7466;53.574;9.976;2023-03-15T06:25:48;14.50;;;9.50;;
14748;SDS011;7466;53.574;9.976;2023-03-15T06:28:17;11.23;;;9.73;;
14748;SDS011;7466;53.574;9.976;2023-03-15T06:30:44;14.77;;;10.33;;
14748;SDS011;7466;53.574;9.976;2023-03-15T06:33:11;17.43;;;10.37;;
14748;SDS011;7466;53.574;9.976;2023-03-15T06:35:38;11.90;;;9.87;;
14748;SDS011;7466;53.574;9.976;2023-03-15T06:38:04;15.60;;;10.67;;
14748;SDS011;7466;53.574;9.976;2023-03-15T06:40:31;12.07;;;8.93;;
14748;SDS011;7466;53.574;9.976;2023-03-15T06:42:58;11.43;;;8.90;;
14748;SDS011;7466;53.574;9.976;2023-03-15T06:45:31;14.70;;;9.27;;
14748;SDS011;7466;53.574;9.976;2023-03-15T06:47:58;16.83;;;9.07;;
14748;SDS011;7466;53.574;9.976;2023-03-15T06:50:25;20.07;;;10.63;;
14748;SDS011;7466;53.574;9.976;2023-03-15T06:52:52;15.50;;;9.10;;
14748;SDS011;7466;53.574;9.976;2023-03-15T06:55:19;15.33;;;9.00;;
14748;SDS011;7466;53.574;9.976;2023-03-15T06:57:45;14.27;;;9.07;;
14748;SDS011;7466;53.574;9.976;2023-03-15T07:00:13;14.60;;;9.17;;
14748;SDS011;7466;53.574;9.976;2023-03-15T07:02:42;12.33;;;8.50;;
14748;SDS011;7466;53.574;9.976;2023-03-15T07:05:09;12.17;;;9.07;;
14748;SDS011;7466;53.574;9.976;2023-03-15T07:07:36;12.67;;;9.63;;
14748;SDS011;7466;53.574;9.976;2023-03-15T07:10:03;14.10;;;8.10;;
14748;SDS011;7466;53.574;9.976;2023-03-15T07:12:30;10.33;;;8.20;;
14748;SDS011;7466;53.574;9.976;2023-03-15T07:14:57;10.70;;;8.00;;
14748;SDS011;7466;53.574;9.976;2023-03-15T07:17:24;9.27;;;7.67;;
14748;SDS011;7466;53.574;9.976;2023-03-15T07:19:52;11.47;;;6.47;;
14748;SDS011;7466;53.574;9.976;2023-03-15T07:22:19;14.97;;;7.57;;
14748;SDS011;7466;53.574;9.976;2023-03-15T07:24:47;13.33;;;6.90;;
14748;SDS011;7466;53.574;9.976;2023-03-15T07:27:14;10.37;;;6.37;;
14748;SDS011;7466;53.574;9.976;2023-03-15T07:29:41;10.97;;;6.20;;
14748;SDS011;7466;53.574;9.976;2023-03-15T07:32:12;7.20;;;4.83;;
14748;SDS011;7466;53.574;9.976;2023-03-15T07:34:40;4.67;;;4.10;;
14748;SDS011;7466;53.574;9.976;2023-03-15T07:37:09;6.10;;;4.00;;
14748;SDS011;7466;53.574;9.976;2023-03-15T07:39:36;7.00;;;4.20;;
14748;SDS011;7466;53.574;9.976;2023-03-15T07:42:04;5.27;;;4.00;;
14748;SDS011;7466;53.574;9.976;2023-03-15T07:44:32;5.83;;;4.97;;
14748;SDS011;7466;53.574;9.976;2023-03-15T07:47:02;8.13;;;4.30;;
14748;SDS011;7466;53.574;9.976;2023-03-15T07:49:29;5.23;;;4.27;;
14748;SDS011;7466;53.574;9.976;2023-03-15T07:51:58;5.87;;;4.00;;
14748;SDS011;7466;53.574;9.976;2023-03-15T07:54:27;4.40;;;4.00;;
14748;SDS011;7466;53.574;9.976;2023-03-15T07:56:55;6.20;;;4.00;;
14748;SDS011;7466;53.574;9.976;2023-03-15T07:59:22;4.73;;;4.23;;
14748;SDS011;7466;53.574;9.976;2023-03-15T08:01:49;8.73;;;4.47;;
14748;SDS011;7466;53.574;9.976;2023-03-15T08:04:18;5.40;;;4.57;;
14748;SDS011;7466;53.574;9.976;2023-03-15T08:06:45;7.60;;;4.70;;
14748;SDS011;7466;53.574;9.976;2023-03-15T08:09:12;8.87;;;4.83;;
14748;SDS011;7466;53.574;9.976;2023-03-15T08:11:40;8.20;;;4.37;;
14748;SDS011;7466;53.574;9.976;2023-03-15T08:14:07;6.37;;;5.00;;
14748;SDS011;7466;53.574;9.976;2023-03-15T08:16:34;4.47;;;4.00;;
14748;SDS011;7466;53.574;9.976;2023-03-15T08:19:03;5.33;;;4.03;;
14748;SDS011;7466;53.574;9.976;2023-03-15T08:21:52;5.10;;;3.73;;
14748;SDS011;7466;53.574;9.976;2023-03-15T08:24:52;4.63;;;3.20;;
14748;SDS011;7466;53.574;9.976;2023-03-15T08:27:23;3.60;;;3.30;;
14748;SDS011;7466;53.574;9.976;2023-03-15T08:29:51;8.27;;;3.00;;
14748;SDS011;7466;53.574;9.976;2023-03-15T08:32:21;4.40;;;2.77;;
14748;SDS011;7466;53.574;9.976;2023-03-15T08:34:50;3.03;;;2.73;;
14748;SDS011;7466;53.574;9.976;2023-03-15T08:37:17;5.03;;;2.70;;
14748;SDS011;7466;53.574;9.976;2023-03-15T08:39:45;5.77;;;2.70;;
14748;SDS011;7466;53.574;9.976;2023-03-15T08:42:11;3.60;;;2.50;;
14748;SDS011;7466;53.574;9.976;2023-03-15T08:44:41;2.70;;;1.90;;
14748;SDS011;7466;53.574;9.976;2023-03-15T08:47:17;7.97;;;2.70;;
14748;SDS011;7466;53.574;9.976;2023-03-15T08:49:44;3.93;;;2.80;;
14748;SDS011;7466;53.574;9.976;2023-03-15T08:52:15;5.00;;;2.77;;
14748;SDS011;7466;53.574;9.976;2023-03-15T08:54:44;3.30;;;2.57;;
14748;SDS011;7466;53.574;9.976;2023-03-15T08:57:14;2.63;;;2.43;;
14748;SDS011;7466;53.574;9.976;2023-03-15T08:59:42;5.70;;;2.30;;
14748;SDS011;7466;53.574;9.976;2023-03-15T09:02:12;7.03;;;1.93;;
14748;SDS011;7466;53.574;9.976;2023-03-15T09:04:39;5.57;;;2.00;;
14748;SDS011;7466;53.574;9.976;2023-03-15T09:07:07;3.97;;;2.07;;
14748;SDS011;7466;53.574;9.976;2023-03-15T09:09:36;3.10;;;1.90;;
14748;SDS011;7466;53.574;9.976;2023-03-15T09:12:04;4.20;;;1.90;;
14748;SDS011;7466;53.574;9.976;2023-03-15T09:14:43;6.30;;;2.00;;
14748;SDS011;7466;53.574;9.976;2023-03-15T09:17:10;3.37;;;1.83;;
14748;SDS011;7466;53.574;9.976;2023-03-15T09:19:37;4.50;;;2.10;;
14748;SDS011;7466;53.574;9.976;2023-03-15T09:22:09;1.93;;;1.40;;
14748;SDS011;7466;53.574;9.976;2023-03-15T09:24:39;3.30;;;1.40;;
14748;SDS011;7466;53.574;9.976;2023-03-15T09:27:06;3.60;;;1.20;;
14748;SDS011;7466;53.574;9.976;2023-03-15T09:29:35;1.87;;;1.40;;
14748;SDS011;7466;53.574;9.976;2023-03-15T09:32:04;2.07;;;1.40;;
14748;SDS011;7466;53.574;9.976;2023-03-15T09:34:31;1.77;;;1.40;;
14748;SDS011;7466;53.574;9.976;2023-03-15T09:36:58;4.17;;;2.00;;
14748;SDS011;7466;53.574;9.976;2023-03-15T09:39:24;4.43;;;1.67;;
14748;SDS011;7466;53.574;9.976;2023-03-15T09:41:52;4.63;;;1.37;;
14748;SDS011;7466;53.574;9.976;2023-03-15T09:44:24;2.87;;;1.20;;
14748;SDS011;7466;53.574;9.976;2023-03-15T09:47:08;2.60;;;1.40;;
14748;SDS011;7466;53.574;9.976;2023-03-15T09:49:46;2.73;;;1.00;;
14748;SDS011;7466;53.574;9.976;2023-03-15T09:52:27;2.40;;;1.30;;
14748;SDS011;7466;53.574;9.976;2023-03-15T09:55:00;3.53;;;1.40;;
14748;SDS011;7466;53.574;9.976;2023-03-15T09:57:34;2.20;;;1.23;;
14748;SDS011;7466;53.574;9.976;2023-03-15T10:00:06;4.30;;;1.37;;
14748;SDS011;7466;53.574;9.976;2023-03-15T10:02:44;4.80;;;2.13;;
14748;SDS011;7466;53.574;9.976;2023-03-15T10:05:21;4.43;;;1.47;;
14748;SDS011;7466;53.574;9.976;2023-03-15T10:07:53;3.57;;;1.40;;
14748;SDS011;7466;53.574;9.976;2023-03-15T10:10:21;7.37;;;1.33;;
14748;SDS011;7466;53.574;9.976;2023-03-15T10:12:55;4.27;;;1.83;;
14748;SDS011;7466;53.574;9.976;2023-03-15T10:15:29;3.90;;;1.70;;
14748;SDS011;7466;53.574;9.976;2023-03-15T10:18:13;8.93;;;1.87;;
14748;SDS011;7466;53.574;9.976;2023-03-15T10:21:00;4.47;;;1.73;;
14748;SDS011;7466;53.574;9.976;2023-03-15T10:23:38;5.10;;;1.70;;
14748;SDS011;7466;53.574;9.976;2023-03-15T10:26:12;8.53;;;1.87;;
14748;SDS011;7466;53.574;9.976;2023-03-15T10:28:44;6.80;;;1.77;;
14748;SDS011;7466;53.574;9.976;2023-03-15T10:31:14;6.73;;;1.73;;
14748;SDS011;7466;53.574;9.976;2023-03-15T10:33:46;4.57;;;2.20;;
14748;SDS011;7466;53.574;9.976;2023-03-15T10:36:15;3.67;;;1.97;;
14748;SDS011;7466;53.574;9.976;2023-03-15T10:38:43;5.33;;;2.03;;
14748;SDS011;7466;53.574;9.976;2023-03-15T10:41:11;5.70;;;1.70;;
14748;SDS011;7466;53.574;9.976;2023-03-15T10:43:39;6.83;;;1.67;;
14748;SDS011;7466;53.574;9.976;2023-03-15T10:46:09;6.70;;;1.63;;
14748;SDS011;7466;53.574;9.976;2023-03-15T10:48:38;3.70;;;1.53;;
14748;SDS011;7466;53.574;9.976;2023-03-15T10:51:19;6.50;;;1.50;;
14748;SDS011;7466;53.574;9.976;2023-03-15T10:53:52;7.37;;;1.60;;
14748;SDS011;7466;53.574;9.976;2023-03-15T10:56:23;3.70;;;1.00;;
14748;SDS011;7466;53.574;9.976;2023-03-15T10:58:51;1.43;;;0.80;;
14748;SDS011;7466;53.574;9.976;2023-03-15T11:01:23;3.30;;;1.20;;
14748;SDS011;7466;53.574;9.976;2023-03-15T11:03:59;2.83;;;0.60;;
14748;SDS011;7466;53.574;9.976;2023-03-15T11:06:36;3.13;;;1.20;;
14748;SDS011;7466;53.574;9.976;2023-03-15T11:09:08;4.20;;;1.23;;
14748;SDS011;7466;53.574;9.976;2023-03-15T11:11:52;3.73;;;0.90;;
14748;SDS011;7466;53.574;9.976;2023-03-15T11:14:22;3.63;;;1.30;;
14748;SDS011;7466;53.574;9.976;2023-03-15T11:16:50;2.07;;;0.80;;
14748;SDS011;7466;53.574;9.976;2023-03-15T11:19:19;1.83;;;1.00;;
14748;SDS011;7466;53.574;9.976;2023-03-15T11:21:50;1.63;;;0.77;;
14748;SDS011;7466;53.574;9.976;2023-03-15T11:24:19;7.87;;;1.30;;
14748;SDS011;7466;53.574;9.976;2023-03-15T11:26:52;3.83;;;1.00;;
14748;SDS011;7466;53.574;9.976;2023-03-15T11:29:21;2.43;;;1.40;;
14748;SDS011;7466;53.574;9.976;2023-03-15T11:31:51;4.80;;;1.40;;
14748;SDS011;7466;53.574;9.976;2023-03-15T11:34:24;1.93;;;0.93;;
14748;SDS011;7466;53.574;9.976;2023-03-15T11:37:06;2.43;;;1.00;;
14748;SDS011;7466;53.574;9.976;2023-03-15T11:39:41;2.60;;;1.20;;
14748;SDS011;7466;53.574;9.976;2023-03-15T11:42:13;7.87;;;1.67;;
14748;SDS011;7466;53.574;9.976;2023-03-15T11:44:45;4.83;;;1.57;;
14748;SDS011;7466;53.574;9.976;2023-03-15T11:47:17;5.67;;;1.40;;
14748;SDS011;7466;53.574;9.976;2023-03-15T11:49:52;4.20;;;1.20;;
14748;SDS011;7466;53.574;9.976;2023-03-15T11:52:27;6.97;;;2.10;;
14748;SDS011;7466;53.574;9.976;2023-03-15T11:54:56;3.00;;;1.20;;
14748;SDS011;7466;53.574;9.976;2023-03-15T11:57:35;3.33;;;1.20;;
14748;SDS011;7466;53.574;9.976;2023-03-15T12:00:18;2.23;;;1.00;;
14748;SDS011;7466;53.574;9.976;2023-03-15T12:06:09;2.03;;;0.87;;
14748;SDS011;7466;53.574;9.976;2023-03-15T12:08:53;1.83;;;1.10;;
14748;SDS011;7466;53.574;9.976;2023-03-15T12:11:37;1.50;;;1.10;;
14748;SDS011;7466;53.574;9.976;2023-03-15T12:14:19;6.50;;;1.40;;
14748;SDS011;7466;53.574;9.976;2023-03-15T12:16:52;4.17;;;1.17;;
14748;SDS011;7466;53.574;9.976;2023-03-15T12:19:46;3.20;;;1.17;;
14748;SDS011;7466;53.574;9.976;2023-03-15T12:22:21;8.03;;;2.13;;
14748;SDS011;7466;53.574;9.976;2023-03-15T12:24:52;4.43;;;1.40;;
14748;SDS011;7466;53.574;9.976;2023-03-15T12:27:20;6.13;;;1.43;;
14748;SDS011;7466;53.574;9.976;2023-03-15T12:29:47;5.97;;;1.53;;
14748;SDS011;7466;53.574;9.976;2023-03-15T12:32:24;4.23;;;1.30;;
14748;SDS011;7466;53.574;9.976;2023-03-15T12:34:53;4.87;;;1.40;;
14748;SDS011;7466;53.574;9.976;2023-03-15T12:37:22;4.97;;;1.30;;
14748;SDS011;7466;53.574;9.976;2023-03-15T12:39:59;3.07;;;1.20;;
14748;SDS011;7466;53.574;9.976;2023-03-15T12:48:24;5.00;;;1.27;;
14748;SDS011;7466;53.574;9.976;2023-03-15T12:51:07;2.87;;;1.27;;
14748;SDS011;7466;53.574;9.976;2023-03-15T12:53:42;3.23;;;0.83;;
14748;SDS011;7466;53.574;9.976;2023-03-15T12:56:27;6.13;;;1.20;;
14748;SDS011;7466;53.574;9.976;2023-03-15T12:59:02;4.00;;;1.30;;
14748;SDS011;7466;53.574;9.976;2023-03-15T13:01:37;6.83;;;1.40;;
14748;SDS011;7466;53.574;9.976;2023-03-15T13:04:08;2.77;;;1.23;;
14748;SDS011;7466;53.574;9.976;2023-03-15T13:06:42;2.57;;;1.20;;
14748;SDS011;7466;53.574;9.976;2023-03-15T13:09:22;4.13;;;1.47;;
14748;SDS011;7466;53.574;9.976;2023-03-15T13:12:04;3.83;;;1.47;;
14748;SDS011;7466;53.574;9.976;2023-03-15T13:14:37;2.93;;;1.20;;
14748;SDS011;7466;53.574;9.976;2023-03-15T13:17:11;4.60;;;1.90;;
14748;SDS011;7466;53.574;9.976;2023-03-15T13:19:50;2.50;;;1.40;;
14748;SDS011;7466;53.574;9.976;2023-03-15T13:22:28;7.00;;;1.60;;
14748;SDS011;7466;53.574;9.976;2023-03-15T13:25:02;3.30;;;1.50;;
14748;SDS011;7466;53.574;9.976;2023-03-15T13:27:44;6.53;;;1.60;;
14748;SDS011;7466;53.574;9.976;2023-03-15T13:30:27;6.33;;;2.23;;
14748;SDS011;7466;53.574;9.976;2023-03-15T13:33:02;6.07;;;2.00;;
14748;SDS011;7466;53.574;9.976;2023-03-15T13:35:31;3.83;;;1.60;;
14748;SDS011;7466;53.574;9.976;2023-03-15T13:40:48;8.30;;;1.73;;
14748;SDS011;7466;53.574;9.976;2023-03-15T13:43:16;9.17;;;2.07;;
14748;SDS011;7466;53.574;9.976;2023-03-15T13:45:43;4.67;;;2.20;;
14748;SDS011;7466;53.574;9.976;2023-03-15T13:48:10;10.67;;;1.80;;
14748;SDS011;7466;53.574;9.976;2023-03-15T13:50:37;5.83;;;2.00;;
14748;SDS011;7466;53.574;9.976;2023-03-15T13:53:04;6.30;;;2.07;;
14748;SDS011;7466;53.574;9.976;2023-03-15T13:55:31;4.60;;;2.03;;
14748;SDS011;7466;53.574;9.976;2023-03-15T13:58:03;5.93;;;2.10;;
14748;SDS011;7466;53.574;9.976;2023-03-15T14:00:35;5.67;;;1.80;;
14748;SDS011;7466;53.574;9.976;2023-03-15T14:03:06;4.20;;;1.97;;
14748;SDS011;7466;53.574;9.976;2023-03-15T14:05:41;5.20;;;1.80;;
14748;SDS011;7466;53.574;9.976;2023-03-15T14:08:16;4.33;;;1.53;;
14748;SDS011;7466;53.574;9.976;2023-03-15T14:10:55;7.27;;;2.27;;
14748;SDS011;7466;53.574;9.976;2023-03-15T14:13:25;4.73;;;2.20;;
14748;SDS011;7466;53.574;9.976;2023-03-15T14:15:59;6.60;;;2.17;;
14748;SDS011;7466;53.574;9.976;2023-03-15T14:18:31;8.23;;;1.90;;
14748;SDS011;7466;53.574;9.976;2023-03-15T14:21:02;6.07;;;1.83;;
14748;SDS011;7466;53.574;9.976;2023-03-15T14:23:34;5.70;;;1.90;;
14748;SDS011;7466;53.574;9.976;2023-03-15T14:26:09;6.30;;;2.00;;
14748;SDS011;7466;53.574;9.976;2023-03-15T14:28:38;7.20;;;1.90;;
14748;SDS011;7466;53.574;9.976;2023-03-15T14:31:11;4.80;;;1.77;;
14748;SDS011;7466;53.574;9.976;2023-03-15T14:33:50;6.47;;;1.57;;
14748;SDS011;7466;53.574;9.976;2023-03-15T14:36:22;6.80;;;1.90;;
14748;SDS011;7466;53.574;9.976;2023-03-15T14:38:55;8.37;;;1.53;;
14748;SDS011;7466;53.574;9.976;2023-03-15T14:41:28;5.73;;;1.57;;
14748;SDS011;7466;53.574;9.976;2023-03-15T14:43:57;9.07;;;2.07;;
14748;SDS011;7466;53.574;9.976;2023-03-15T14:46:26;6.63;;;1.70;;
14748;SDS011;7466;53.574;9.976;2023-03-15T14:48:53;10.03;;;2.30;;
14748;SDS011;7466;53.574;9.976;2023-03-15T14:51:20;4.80;;;1.50;;
14748;SDS011;7466;53.574;9.976;2023-03-15T14:53:50;5.10;;;1.80;;
14748;SDS011;7466;53.574;9.976;2023-03-15T14:56:20;6.30;;;1.70;;
14748;SDS011;7466;53.574;9.976;2023-03-15T14:58:47;5.23;;;1.60;;
14748;SDS011;7466;53.574;9.976;2023-03-15T15:01:15;4.40;;;1.70;;
14748;SDS011;7466;53.574;9.976;2023-03-15T15:03:48;8.97;;;1.83;;
14748;SDS011;7466;53.574;9.976;2023-03-15T15:06:26;7.53;;;1.90;;
14748;SDS011;7466;53.574;9.976;2023-03-15T15:08:56;7.37;;;1.93;;
14748;SDS011;7466;53.574;9.976;2023-03-15T15:11:25;5.57;;;1.73;;
14748;SDS011;7466;53.574;9.976;2023-03-15T15:13:52;5.43;;;2.00;;
14748;SDS011;7466;53.574;9.976;2023-03-15T15:16:20;4.77;;;1.50;;
14748;SDS011;7466;53.574;9.976;2023-03-15T15:18:48;8.97;;;1.73;;
14748;SDS011;7466;53.574;9.976;2023-03-15T15:21:17;6.20;;;2.30;;
14748;SDS011;7466;53.574;9.976;2023-03-15T15:23:47;9.50;;;2.20;;
14748;SDS011;7466;53.574;9.976;2023-03-15T15:26:16;10.90;;;2.27;;
14748;SDS011;7466;53.574;9.976;2023-03-15T15:28:44;8.87;;;2.23;;
14748;SDS011;7466;53.574;9.976;2023-03-15T15:31:13;8.53;;;1.87;;